Ana Sayfa
METAR-TAF:

METAR-TAF

Havaalanları :

Mthatha, Güney Afrika

Enlem: 31-32-47S, Boylam: 028-40-31E, yükseklik: 740 m

Güncel hava durumu gözlemi

Rapor saat 07:00 UTC de 28 dakika önce yapıldı.
Rüzgar kuzey/kuzeybatıdan 2 kt
Sıcaklık 15°C
Nem 59%
Basınç 1021 hPa
Görüş mesafesi 10 km veya daha fazla
1500 m altında bulut yok ve kümülonimbus yok

METAR: FAUT 150700Z 34002KT CAVOK 15/07 Q1021

Saat: 09:28 (07:28 UTC)

Tahmin

Rapor saat 06:00 UTC de 1 saat ve 28 dakika önce yapıldı.
Ayın 15'si saat 07 UTC'den ayın 15'si saat 18 UTC'ye kadar geçerli Tahmin
Rüzgar kuzeydan 5 kt
Görüş mesafesi 10 km veya daha fazla
1500 m altında bulut yok ve kümülonimbus yok
Dönüşüyor
ayın 15'si saat 11 UTC'den ayın 15'si saat 12 UTC'ye kadar
Rüzgar güneybatıdan 6 kt
Dönüşüyor
ayın 15'si saat 15 UTC'den ayın 15'si saat 17 UTC'ye kadar
Rüzgar doğu/güneydoğudan 8 kt

TAF: FAUT 150600Z 1507/1518 36005KT CAVOK TX23/1512Z TN16/1518Z BECMG 1511/1512 22006KT BECMG 1515/1517 11008KT

4.000'den fazla havaalanı için hava durumu gözlemleri ve tahminleri (METAR ve TAF raporları).

Kullanılabilir istasyonlar harita üzerinde sarı ve kırmızı noktalarla gösterilir.

İstasyonun adını görmek için fareyi noktanın üzerinde gezdirin.

Sonrasında hava gözlem ve tahminlerini görmek için tıklayın.

Haritayı değiştirmek için: yaklaştırmak için siyah artı işaretli yeşil düğmeye ve uzaklaştırmak için de eksi işaretli düğmeye hızla tıklayın; bitişik haritalar için yeşil okları kullanın.


METAR-TAF: